sensor_id;sensor_type;location;lat;lon;timestamp;pressure;altitude;pressure_sealevel;temperature;humidity
69318;BME280;56457;52.190;4.440;2023-02-13T00:00:01;103860.06;;;7.73;100.00
69318;BME280;56457;52.190;4.440;2023-02-13T00:01:01;103866.03;;;7.71;100.00
69318;BME280;56457;52.190;4.440;2023-02-13T00:02:02;103865.22;;;7.72;100.00
69318;BME280;56457;52.190;4.440;2023-02-13T00:03:03;103864.38;;;7.73;100.00
69318;BME280;56457;52.190;4.440;2023-02-13T00:04:03;103870.38;;;7.70;100.00
69318;BME280;56457;52.190;4.440;2023-02-13T00:05:04;103869.53;;;7.71;100.00
69318;BME280;56457;52.190;4.440;2023-02-13T00:06:04;103863.41;;;7.71;100.00
69318;BME280;56457;52.190;4.440;2023-02-13T00:07:04;103866.25;;;7.75;100.00
69318;BME280;56457;52.190;4.440;2023-02-13T00:08:05;103868.13;;;7.78;100.00
69318;BME280;56457;52.190;4.440;2023-02-13T00:09:05;103862.84;;;7.76;100.00
69318;BME280;56457;52.190;4.440;2023-02-13T00:10:10;103869.03;;;7.78;100.00
69318;BME280;56457;52.190;4.440;2023-02-13T00:11:10;103874.91;;;7.74;100.00
69318;BME280;56457;52.190;4.440;2023-02-13T00:12:10;103869.53;;;7.71;100.00
69318;BME280;56457;52.190;4.440;2023-02-13T00:13:11;103857.38;;;7.72;100.00
69318;BME280;56457;52.190;4.440;2023-02-13T00:14:11;103864.38;;;7.73;100.00
69318;BME280;56457;52.190;4.440;2023-02-13T00:15:11;103861.59;;;7.70;100.00
69318;BME280;56457;52.190;4.440;2023-02-13T00:16:12;103858.09;;;7.69;100.00
69318;BME280;56457;52.190;4.440;2023-02-13T00:17:12;103860.94;;;7.74;100.00
69318;BME280;56457;52.190;4.440;2023-02-13T00:18:12;103859.16;;;7.73;100.00
69318;BME280;56457;52.190;4.440;2023-02-13T00:19:13;103858.00;;;7.68;100.00
69318;BME280;56457;52.190;4.440;2023-02-13T00:20:13;103858.84;;;7.67;100.00
69318;BME280;56457;52.190;4.440;2023-02-13T00:21:13;103849.22;;;7.66;100.00
69318;BME280;56457;52.190;4.440;2023-02-13T00:22:14;103862.53;;;7.70;100.00
69318;BME280;56457;52.190;4.440;2023-02-13T00:23:15;103858.34;;;7.74;100.00
69318;BME280;56457;52.190;4.440;2023-02-13T00:24:15;103856.63;;;7.74;100.00
69318;BME280;56457;52.190;4.440;2023-02-13T00:25:16;103851.25;;;7.71;100.00
69318;BME280;56457;52.190;4.440;2023-02-13T00:26:16;103856.22;;;7.67;100.00
69318;BME280;56457;52.190;4.440;2023-02-13T00:27:17;103855.56;;;7.71;100.00
69318;BME280;56457;52.190;4.440;2023-02-13T00:28:17;103860.81;;;7.71;100.00
69318;BME280;56457;52.190;4.440;2023-02-13T00:29:18;103851.47;;;7.76;100.00
69318;BME280;56457;52.190;4.440;2023-02-13T00:30:19;103853.19;;;7.75;100.00
69318;BME280;56457;52.190;4.440;2023-02-13T00:31:19;103859.97;;;7.72;100.00
69318;BME280;56457;52.190;4.440;2023-02-13T00:32:20;103855.41;;;7.68;100.00
69318;BME280;56457;52.190;4.440;2023-02-13T00:33:20;103856.16;;;7.65;100.00
69318;BME280;56457;52.190;4.440;2023-02-13T00:34:21;103852.78;;;7.68;100.00
69318;BME280;56457;52.190;4.440;2023-02-13T00:35:21;103851.06;;;7.68;100.00
69318;BME280;56457;52.190;4.440;2023-02-13T00:36:21;103851.97;;;7.69;100.00
69318;BME280;56457;52.190;4.440;2023-02-13T00:37:22;103847.50;;;7.66;100.00
69318;BME280;56457;52.190;4.440;2023-02-13T00:38:23;103849.34;;;7.69;100.00
69318;BME280;56457;52.190;4.440;2023-02-13T00:39:23;103852.06;;;7.70;100.00
69318;BME280;56457;52.190;4.440;2023-02-13T00:40:23;103849.28;;;7.67;100.00
69318;BME280;56457;52.190;4.440;2023-02-13T00:41:24;103856.28;;;7.68;100.00
69318;BME280;56457;52.190;4.440;2023-02-13T00:42:24;103850.19;;;7.68;100.00
69318;BME280;56457;52.190;4.440;2023-02-13T00:43:25;103857.19;;;7.69;100.00
69318;BME280;56457;52.190;4.440;2023-02-13T00:44:25;103848.53;;;7.70;100.00
69318;BME280;56457;52.190;4.440;2023-02-13T00:45:26;103850.34;;;7.71;100.00
69318;BME280;56457;52.190;4.440;2023-02-13T00:46:26;103855.47;;;7.69;100.00
69318;BME280;56457;52.190;4.440;2023-02-13T00:47:26;103857.28;;;7.70;100.00
69318;BME280;56457;52.190;4.440;2023-02-13T00:48:27;103851.25;;;7.71;100.00
69318;BME280;56457;52.190;4.440;2023-02-13T00:49:28;103855.47;;;7.69;100.00
69318;BME280;56457;52.190;4.440;2023-02-13T00:50:28;103854.69;;;7.70;100.00
69318;BME280;56457;52.190;4.440;2023-02-13T00:51:29;103854.75;;;7.72;100.00
69318;BME280;56457;52.190;4.440;2023-02-13T00:52:29;103859.91;;;7.70;100.00
69318;BME280;56457;52.190;4.440;2023-02-13T00:53:29;103851.81;;;7.66;100.00
69318;BME280;56457;52.190;4.440;2023-02-13T00:54:30;103847.50;;;7.66;100.00
69318;BME280;56457;52.190;4.440;2023-02-13T00:55:30;103851.06;;;7.68;100.00
69318;BME280;56457;52.190;4.440;2023-02-13T00:56:30;103851.06;;;7.68;100.00
69318;BME280;56457;52.190;4.440;2023-02-13T00:57:31;103853.59;;;7.67;100.00
69318;BME280;56457;52.190;4.440;2023-02-13T00:58:31;103850.19;;;7.68;100.00
69318;BME280;56457;52.190;4.440;2023-02-13T00:59:31;103849.47;;;7.70;100.00
69318;BME280;56457;52.190;4.440;2023-02-13T01:00:31;103848.63;;;7.71;100.00
69318;BME280;56457;52.190;4.440;2023-02-13T01:01:32;103839.91;;;7.71;100.00
69318;BME280;56457;52.190;4.440;2023-02-13T01:02:32;103849.34;;;7.69;100.00
69318;BME280;56457;52.190;4.440;2023-02-13T01:03:35;103848.53;;;7.70;100.00
69318;BME280;56457;52.190;4.440;2023-02-13T01:04:35;103839.72;;;7.68;100.00
69318;BME280;56457;52.190;4.440;2023-02-13T01:05:36;103844.06;;;7.67;100.00
69318;BME280;56457;52.190;4.440;2023-02-13T01:06:36;103849.84;;;7.62;100.00
69318;BME280;56457;52.190;4.440;2023-02-13T01:07:36;103844.38;;;7.57;100.00
69318;BME280;56457;52.190;4.440;2023-02-13T01:08:40;103840.03;;;7.57;100.00
69318;BME280;56457;52.190;4.440;2023-02-13T01:09:40;103848.50;;;7.52;100.00
69318;BME280;56457;52.190;4.440;2023-02-13T01:10:41;103834.59;;;7.53;100.00
69318;BME280;56457;52.190;4.440;2023-02-13T01:11:41;103840.03;;;7.57;100.00
69318;BME280;56457;52.190;4.440;2023-02-13T01:12:42;103842.97;;;7.64;100.00
69318;BME280;56457;52.190;4.440;2023-02-13T01:13:42;103837.09;;;7.68;100.00
69318;BME280;56457;52.190;4.440;2023-02-13T01:14:42;103842.91;;;7.62;100.00
69318;BME280;56457;52.190;4.440;2023-02-13T01:15:43;103842.66;;;7.57;100.00
69318;BME280;56457;52.190;4.440;2023-02-13T01:16:43;103836.78;;;7.62;100.00
69318;BME280;56457;52.190;4.440;2023-02-13T01:17:44;103836.84;;;7.63;100.00
69318;BME280;56457;52.190;4.440;2023-02-13T01:18:44;103844.50;;;7.59;100.00
69318;BME280;56457;52.190;4.440;2023-02-13T01:19:44;103838.25;;;7.56;100.00
69318;BME280;56457;52.190;4.440;2023-02-13T01:20:45;103836.31;;;7.52;100.00
69318;BME280;56457;52.190;4.440;2023-02-13T01:21:54;103838.75;;;7.49;100.00
69318;BME280;56457;52.190;4.440;2023-02-13T01:22:54;103839.91;;;7.54;100.00
69318;BME280;56457;52.190;4.440;2023-02-13T01:23:55;103834.94;;;7.59;100.00
69318;BME280;56457;52.190;4.440;2023-02-13T01:24:55;103837.44;;;7.57;100.00
69318;BME280;56457;52.190;4.440;2023-02-13T01:25:55;103839.25;;;7.59;100.00
69318;BME280;56457;52.190;4.440;2023-02-13T01:26:56;103837.28;;;7.54;100.00
69318;BME280;56457;52.190;4.440;2023-02-13T01:27:56;103843.59;;;7.58;100.00
69318;BME280;56457;52.190;4.440;2023-02-13T01:28:56;103838.19;;;7.55;100.00
69318;BME280;56457;52.190;4.440;2023-02-13T01:29:57;103832.81;;;7.52;100.00
69318;BME280;56457;52.190;4.440;2023-02-13T01:30:58;103838.03;;;7.52;100.00
69318;BME280;56457;52.190;4.440;2023-02-13T01:31:58;103828.56;;;7.54;100.00
69318;BME280;56457;52.190;4.440;2023-02-13T01:32:59;103836.97;;;7.48;100.00
69318;BME280;56457;52.190;4.440;2023-02-13T01:33:59;103831.31;;;7.57;100.00
69318;BME280;56457;52.190;4.440;2023-02-13T01:34:59;103827.97;;;7.60;100.00
69318;BME280;56457;52.190;4.440;2023-02-13T01:36:04;103829.84;;;7.62;100.00
69318;BME280;56457;52.190;4.440;2023-02-13T01:37:04;103831.50;;;7.60;100.00
69318;BME280;56457;52.190;4.440;2023-02-13T01:38:04;103828.69;;;7.57;100.00
69318;BME280;56457;52.190;4.440;2023-02-13T01:39:05;103832.13;;;7.56;100.00
69318;BME280;56457;52.190;4.440;2023-02-13T01:40:06;103837.22;;;7.53;100.00
69318;BME280;56457;52.190;4.440;2023-02-13T01:41:06;103838.13;;;7.53;100.00
69318;BME280;56457;52.190;4.440;2023-02-13T01:42:26;103838.63;;;7.46;100.00
69318;BME280;56457;52.190;4.440;2023-02-13T01:44:47;103841.56;;;7.52;100.00
69318;BME280;56457;52.190;4.440;2023-02-13T01:45:48;103839.91;;;7.54;100.00
69318;BME280;56457;52.190;4.440;2023-02-13T01:46:50;103839.97;;;7.56;100.00
69318;BME280;56457;52.190;4.440;2023-02-13T01:47:53;103839.72;;;7.51;100.00
69318;BME280;56457;52.190;4.440;2023-02-13T01:48:55;103839.16;;;7.57;100.00
69318;BME280;56457;52.190;4.440;2023-02-13T01:50:05;103842.66;;;7.57;100.00
69318;BME280;56457;52.190;4.440;2023-02-13T01:51:08;103842.00;;;7.62;100.00
69318;BME280;56457;52.190;4.440;2023-02-13T01:52:11;103840.88;;;7.56;100.00
69318;BME280;56457;52.190;4.440;2023-02-13T01:54:14;103834.03;;;7.59;100.00
69318;BME280;56457;52.190;4.440;2023-02-13T01:55:16;103839.72;;;7.51;100.00
69318;BME280;56457;52.190;4.440;2023-02-13T01:56:19;103843.16;;;7.50;100.00
69318;BME280;56457;52.190;4.440;2023-02-13T01:57:21;103838.13;;;7.53;100.00
69318;BME280;56457;52.190;4.440;2023-02-13T01:58:24;103840.47;;;7.49;100.00
69318;BME280;56457;52.190;4.440;2023-02-13T01:59:28;103839.00;;;7.54;100.00
69318;BME280;56457;52.190;4.440;2023-02-13T02:00:31;103840.56;;;7.50;100.00
69318;BME280;56457;52.190;4.440;2023-02-13T02:01:32;103835.44;;;7.52;100.00
69318;BME280;56457;52.190;4.440;2023-02-13T02:02:35;103839.84;;;7.53;100.00
69318;BME280;56457;52.190;4.440;2023-02-13T02:03:49;103839.59;;;7.48;100.00
69318;BME280;56457;52.190;4.440;2023-02-13T02:04:51;103836.16;;;7.49;100.00
69318;BME280;56457;52.190;4.440;2023-02-13T02:05:51;103844.81;;;7.48;100.00
69318;BME280;56457;52.190;4.440;2023-02-13T02:07:00;103835.19;;;7.47;100.00
69318;BME280;56457;52.190;4.440;2023-02-13T02:08:01;103836.00;;;7.46;100.00
69318;BME280;56457;52.190;4.440;2023-02-13T02:09:05;103830.09;;;7.50;100.00
69318;BME280;56457;52.190;4.440;2023-02-13T02:10:08;103839.66;;;7.50;100.00
69318;BME280;56457;52.190;4.440;2023-02-13T02:11:13;103841.31;;;7.48;100.00
69318;BME280;56457;52.190;4.440;2023-02-13T02:13:19;103833.53;;;7.49;100.00
69318;BME280;56457;52.190;4.440;2023-02-13T02:14:19;103834.44;;;7.50;100.00
69318;BME280;56457;52.190;4.440;2023-02-13T02:15:20;103831.44;;;7.42;100.00
69318;BME280;56457;52.190;4.440;2023-02-13T02:16:20;103828.75;;;7.41;100.00
69318;BME280;56457;52.190;4.440;2023-02-13T02:17:21;103830.78;;;7.46;100.00
69318;BME280;56457;52.190;4.440;2023-02-13T02:18:23;103832.63;;;7.49;100.00
69318;BME280;56457;52.190;4.440;2023-02-13T02:21:50;103831.41;;;7.59;100.00
69318;BME280;56457;52.190;4.440;2023-02-13T02:26:54;103822.00;;;7.62;100.00
69318;BME280;56457;52.190;4.440;2023-02-13T02:36:49;103819.91;;;7.55;100.00
69318;BME280;56457;52.190;4.440;2023-02-13T02:40:45;103816.63;;;7.59;100.00
69318;BME280;56457;52.190;4.440;2023-02-13T02:42:00;103816.78;;;7.62;100.00
69318;BME280;56457;52.190;4.440;2023-02-13T02:45:47;103817.84;;;7.49;100.00
69318;BME280;56457;52.190;4.440;2023-02-13T02:48:25;103816.72;;;7.44;100.00
69318;BME280;56457;52.190;4.440;2023-02-13T02:49:49;103809.13;;;7.49;100.00
69318;BME280;56457;52.190;4.440;2023-02-13T02:51:02;103811.81;;;7.50;100.00
69318;BME280;56457;52.190;4.440;2023-02-13T02:52:19;103812.25;;;7.42;100.00
69318;BME280;56457;52.190;4.440;2023-02-13T02:55:42;103803.66;;;7.44;100.00
69318;BME280;56457;52.190;4.440;2023-02-13T02:56:46;103804.41;;;7.42;100.00
69318;BME280;56457;52.190;4.440;2023-02-13T02:57:48;103807.78;;;7.39;100.00
69318;BME280;56457;52.190;4.440;2023-02-13T02:59:10;103810.53;;;7.42;100.00
69318;BME280;56457;52.190;4.440;2023-02-13T03:00:31;103814.22;;;7.46;100.00
69318;BME280;56457;52.190;4.440;2023-02-13T03:01:52;103810.09;;;7.51;100.00
69318;BME280;56457;52.190;4.440;2023-02-13T03:03:16;103805.94;;;7.54;100.00
69318;BME280;56457;52.190;4.440;2023-02-13T03:04:39;103808.47;;;7.53;100.00
69318;BME280;56457;52.190;4.440;2023-02-13T03:06:00;103807.47;;;7.51;100.00
69318;BME280;56457;52.190;4.440;2023-02-13T03:07:10;103817.78;;;7.48;100.00
69318;BME280;56457;52.190;4.440;2023-02-13T03:08:12;103815.94;;;7.45;100.00
69318;BME280;56457;52.190;4.440;2023-02-13T03:09:14;103813.31;;;7.45;100.00
69318;BME280;56457;52.190;4.440;2023-02-13T03:10:35;103814.78;;;7.40;100.00
69318;BME280;56457;52.190;4.440;2023-02-13T03:11:55;103817.47;;;7.42;100.00
69318;BME280;56457;52.190;4.440;2023-02-13T03:13:16;103816.50;;;7.40;100.00
69318;BME280;56457;52.190;4.440;2023-02-13T03:14:20;103812.38;;;7.45;100.00
69318;BME280;56457;52.190;4.440;2023-02-13T03:15:24;103817.72;;;7.46;100.00
69318;BME280;56457;52.190;4.440;2023-02-13T03:16:26;103816.06;;;7.48;100.00
69318;BME280;56457;52.190;4.440;2023-02-13T03:17:53;103810.78;;;7.47;100.00
69318;BME280;56457;52.190;4.440;2023-02-13T03:19:12;103816.06;;;7.48;100.00
69318;BME280;56457;52.190;4.440;2023-02-13T03:22:02;103811.66;;;7.47;100.00
69318;BME280;56457;52.190;4.440;2023-02-13T03:23:32;103810.53;;;7.42;100.00
69318;BME280;56457;52.190;4.440;2023-02-13T03:24:40;103813.97;;;7.41;100.00
69318;BME280;56457;52.190;4.440;2023-02-13T03:28:24;103818.09;;;7.54;100.00
69318;BME280;56457;52.190;4.440;2023-02-13T03:32:00;103800.53;;;7.51;100.00
69318;BME280;56457;52.190;4.440;2023-02-13T03:34:13;103802.63;;;7.41;100.00
69318;BME280;56457;52.190;4.440;2023-02-13T03:35:27;103806.44;;;7.31;100.00
69318;BME280;56457;52.190;4.440;2023-02-13T03:37:00;103802.28;;;7.35;100.00
69318;BME280;56457;52.190;4.440;2023-02-13T03:38:28;103805.72;;;7.34;100.00
69318;BME280;56457;52.190;4.440;2023-02-13T03:40:35;103809.56;;;7.24;100.00
69318;BME280;56457;52.190;4.440;2023-02-13T03:42:06;103802.53;;;7.23;100.00
69318;BME280;56457;52.190;4.440;2023-02-13T03:43:13;103800.31;;;7.31;100.00
69318;BME280;56457;52.190;4.440;2023-02-13T03:44:19;103803.00;;;7.32;100.00
69318;BME280;56457;52.190;4.440;2023-02-13T03:45:29;103798.69;;;7.33;100.00
69318;BME280;56457;52.190;4.440;2023-02-13T03:46:50;103795.28;;;7.34;100.00
69318;BME280;56457;52.190;4.440;2023-02-13T03:47:53;103794.28;;;7.32;100.00
69318;BME280;56457;52.190;4.440;2023-02-13T03:48:54;103793.47;;;7.33;100.00
69318;BME280;56457;52.190;4.440;2023-02-13T03:50:14;103793.78;;;7.39;100.00
69318;BME280;56457;52.190;4.440;2023-02-13T03:51:20;103795.09;;;7.31;100.00
69318;BME280;56457;52.190;4.440;2023-02-13T03:53:44;103791.91;;;7.20;100.00
69318;BME280;56457;52.190;4.440;2023-02-13T03:54:48;103791.84;;;7.18;100.00
69318;BME280;56457;52.190;4.440;2023-02-13T03:56:10;103791.91;;;7.20;100.00
69318;BME280;56457;52.190;4.440;2023-02-13T03:57:31;103794.47;;;7.18;100.00
69318;BME280;56457;52.190;4.440;2023-02-13T03:58:51;103791.91;;;7.20;100.00
69318;BME280;56457;52.190;4.440;2023-02-13T04:00:13;103785.72;;;7.18;100.00
69318;BME280;56457;52.190;4.440;2023-02-13T04:01:16;103793.75;;;7.21;100.00
69318;BME280;56457;52.190;4.440;2023-02-13T04:02:19;103793.88;;;7.24;100.00
69318;BME280;56457;52.190;4.440;2023-02-13T04:03:23;103792.03;;;7.21;100.00
69318;BME280;56457;52.190;4.440;2023-02-13T04:05:45;103788.09;;;7.29;100.00
69318;BME280;56457;52.190;4.440;2023-02-13T04:06:51;103791.91;;;7.36;100.00
69318;BME280;56457;52.190;4.440;2023-02-13T04:07:53;103790.53;;;7.26;100.00
69318;BME280;56457;52.190;4.440;2023-02-13T04:08:53;103789.22;;;7.18;100.00
69318;BME280;56457;52.190;4.440;2023-02-13T04:09:57;103781.97;;;7.13;100.00
69318;BME280;56457;52.190;4.440;2023-02-13T04:11:02;103793.41;;;7.15;100.00
69318;BME280;56457;52.190;4.440;2023-02-13T04:13:44;103792.25;;;7.10;100.00
69318;BME280;56457;52.190;4.440;2023-02-13T04:14:39;103793.41;;;7.15;100.00
69318;BME280;56457;52.190;4.440;2023-02-13T04:15:47;103790.31;;;7.22;100.00
69318;BME280;56457;52.190;4.440;2023-02-13T04:16:50;103791.44;;;7.27;100.00
69318;BME280;56457;52.190;4.440;2023-02-13T04:17:53;103790.44;;;7.25;100.00
69318;BME280;56457;52.190;4.440;2023-02-13T04:18:54;103788.09;;;7.29;100.00
69318;BME280;56457;52.190;4.440;2023-02-13T04:19:55;103790.69;;;7.29;100.00
69318;BME280;56457;52.190;4.440;2023-02-13T04:20:56;103787.13;;;7.27;100.00
69318;BME280;56457;52.190;4.440;2023-02-13T04:21:57;103794.22;;;7.30;100.00
69318;BME280;56457;52.190;4.440;2023-02-13T04:23:02;103785.88;;;7.37;100.00
69318;BME280;56457;52.190;4.440;2023-02-13T04:24:03;103793.56;;;7.34;100.00
69318;BME280;56457;52.190;4.440;2023-02-13T04:25:03;103797.56;;;7.27;100.00
69318;BME280;56457;52.190;4.440;2023-02-13T04:26:07;103793.75;;;7.21;100.00
69318;BME280;56457;52.190;4.440;2023-02-13T04:27:09;103791.84;;;7.18;100.00
69318;BME280;56457;52.190;4.440;2023-02-13T04:28:11;103795.53;;;7.22;100.00
69318;BME280;56457;52.190;4.440;2023-02-13T04:29:12;103797.13;;;7.20;100.00
69318;BME280;56457;52.190;4.440;2023-02-13T04:30:12;103800.56;;;7.19;100.00
69318;BME280;56457;52.190;4.440;2023-02-13T04:31:13;103796.50;;;7.24;100.00
69318;BME280;56457;52.190;4.440;2023-02-13T04:32:13;103794.06;;;7.27;100.00
69318;BME280;56457;52.190;4.440;2023-02-13T04:33:14;103794.06;;;7.27;100.00
69318;BME280;56457;52.190;4.440;2023-02-13T04:34:14;103792.34;;;7.27;100.00
69318;BME280;56457;52.190;4.440;2023-02-13T04:35:15;103795.84;;;7.28;100.00
69318;BME280;56457;52.190;4.440;2023-02-13T04:36:15;103793.75;;;7.21;100.00
69318;BME280;56457;52.190;4.440;2023-02-13T04:37:15;103786.88;;;7.23;100.00
69318;BME280;56457;52.190;4.440;2023-02-13T04:38:16;103786.13;;;7.25;100.00
69318;BME280;56457;52.190;4.440;2023-02-13T04:39:17;103785.63;;;7.33;100.00
69318;BME280;56457;52.190;4.440;2023-02-13T04:40:17;103781.97;;;7.29;100.00
69318;BME280;56457;52.190;4.440;2023-02-13T04:41:17;103786.31;;;7.28;100.00
69318;BME280;56457;52.190;4.440;2023-02-13T04:42:18;103793.00;;;7.23;100.00
69318;BME280;56457;52.190;4.440;2023-02-13T04:43:18;103785.16;;;7.23;100.00
69318;BME280;56457;52.190;4.440;2023-02-13T04:44:18;103794.53;;;7.20;100.00
69318;BME280;56457;52.190;4.440;2023-02-13T04:45:18;103787.44;;;7.17;100.00
69318;BME280;56457;52.190;4.440;2023-02-13T04:46:19;103785.72;;;7.18;100.00
69318;BME280;56457;52.190;4.440;2023-02-13T04:47:19;103788.34;;;7.18;100.00
69318;BME280;56457;52.190;4.440;2023-02-13T04:48:19;103785.91;;;7.21;100.00
69318;BME280;56457;52.190;4.440;2023-02-13T04:49:20;103787.91;;;7.26;100.00
69318;BME280;56457;52.190;4.440;2023-02-13T04:50:20;103781.09;;;7.28;100.00
69318;BME280;56457;52.190;4.440;2023-02-13T04:51:21;103791.28;;;7.24;100.00
69318;BME280;56457;52.190;4.440;2023-02-13T04:52:21;103785.16;;;7.23;100.00
69318;BME280;56457;52.190;4.440;2023-02-13T04:53:21;103788.66;;;7.24;100.00
69318;BME280;56457;52.190;4.440;2023-02-13T04:54:21;103791.91;;;7.20;100.00
69318;BME280;56457;52.190;4.440;2023-02-13T04:55:25;103788.34;;;7.18;100.00
69318;BME280;56457;52.190;4.440;2023-02-13T04:56:26;103787.03;;;7.26;100.00
69318;BME280;56457;52.190;4.440;2023-02-13T04:57:26;103783.63;;;7.27;100.00
69318;BME280;56457;52.190;4.440;2023-02-13T04:58:27;103781.97;;;7.29;100.00
69318;BME280;56457;52.190;4.440;2023-02-13T04:59:27;103783.94;;;7.33;100.00
69318;BME280;56457;52.190;4.440;2023-02-13T05:00:27;103779.69;;;7.35;100.00
69318;BME280;56457;52.190;4.440;2023-02-13T05:01:28;103785.72;;;7.34;100.00
69318;BME280;56457;52.190;4.440;2023-02-13T05:02:29;103772.34;;;7.28;100.00
69318;BME280;56457;52.190;4.440;2023-02-13T05:03:30;103780.09;;;7.26;100.00
69318;BME280;56457;52.190;4.440;2023-02-13T05:04:30;103777.16;;;7.20;100.00
69318;BME280;56457;52.190;4.440;2023-02-13T05:05:30;103773.19;;;7.27;100.00
69318;BME280;56457;52.190;4.440;2023-02-13T05:06:30;103771.47;;;7.27;100.00
69318;BME280;56457;52.190;4.440;2023-02-13T05:07:31;103776.25;;;7.20;100.00
69318;BME280;56457;52.190;4.440;2023-02-13T05:08:31;103768.19;;;7.15;100.00
69318;BME280;56457;52.190;4.440;2023-02-13T05:09:32;103775.34;;;7.19;100.00
69318;BME280;56457;52.190;4.440;2023-02-13T05:10:32;103777.75;;;7.15;100.00
69318;BME280;56457;52.190;4.440;2023-02-13T05:11:33;103775.94;;;7.14;100.00
69318;BME280;56457;52.190;4.440;2023-02-13T05:12:33;103770.38;;;7.08;100.00
69318;BME280;56457;52.190;4.440;2023-02-13T05:13:33;103778.47;;;7.12;100.00
69318;BME280;56457;52.190;4.440;2023-02-13T05:14:33;103776.84;;;7.14;100.00
69318;BME280;56457;52.190;4.440;2023-02-13T05:15:34;103771.72;;;7.16;100.00
69318;BME280;56457;52.190;4.440;2023-02-13T05:16:34;103777.00;;;7.17;100.00
69318;BME280;56457;52.190;4.440;2023-02-13T05:17:34;103773.63;;;7.20;100.00
69318;BME280;56457;52.190;4.440;2023-02-13T05:18:34;103780.00;;;7.25;100.00
69318;BME280;56457;52.190;4.440;2023-02-13T05:19:35;103775.53;;;7.22;100.00
69318;BME280;56457;52.190;4.440;2023-02-13T05:20:35;103772.53;;;7.15;100.00
69318;BME280;56457;52.190;4.440;2023-02-13T05:21:35;103773.25;;;7.12;100.00
69318;BME280;56457;52.190;4.440;2023-02-13T05:22:54;103781.81;;;7.10;100.00
69318;BME280;56457;52.190;4.440;2023-02-13T05:24:13;103779.94;;;7.07;100.00
69318;BME280;56457;52.190;4.440;2023-02-13T05:25:13;103778.53;;;7.14;100.00
69318;BME280;56457;52.190;4.440;2023-02-13T05:26:13;103777.56;;;7.12;100.00
69318;BME280;56457;52.190;4.440;2023-02-13T05:27:14;103776.66;;;7.11;100.00
69318;BME280;56457;52.190;4.440;2023-02-13T05:28:14;103780.34;;;7.15;100.00
69318;BME280;56457;52.190;4.440;2023-02-13T05:29:34;103778.88;;;7.20;100.00
69318;BME280;56457;52.190;4.440;2023-02-13T05:30:34;103775.47;;;7.21;100.00
69318;BME280;56457;52.190;4.440;2023-02-13T05:31:35;103777.25;;;7.22;100.00
69318;BME280;56457;52.190;4.440;2023-02-13T05:32:35;103779.88;;;7.22;100.00
69318;BME280;56457;52.190;4.440;2023-02-13T05:33:36;103776.09;;;7.17;100.00
69318;BME280;56457;52.190;4.440;2023-02-13T05:34:36;103781.41;;;7.18;100.00
69318;BME280;56457;52.190;4.440;2023-02-13T05:35:37;103784.91;;;7.19;100.00
69318;BME280;56457;52.190;4.440;2023-02-13T05:36:37;103777.75;;;7.15;100.00
69318;BME280;56457;52.190;4.440;2023-02-13T05:37:38;103780.34;;;7.15;100.00
69318;BME280;56457;52.190;4.440;2023-02-13T05:38:39;103776.03;;;7.15;100.00
69318;BME280;56457;52.190;4.440;2023-02-13T05:39:40;103774.38;;;7.17;100.00
69318;BME280;56457;52.190;4.440;2023-02-13T05:40:40;103776.09;;;7.17;100.00
69318;BME280;56457;52.190;4.440;2023-02-13T05:41:41;103774.47;;;7.19;100.00
69318;BME280;56457;52.190;4.440;2023-02-13T05:42:41;103772.66;;;7.18;100.00
69318;BME280;56457;52.190;4.440;2023-02-13T05:43:42;103775.78;;;7.11;100.00
69318;BME280;56457;52.190;4.440;2023-02-13T05:44:42;103778.47;;;7.12;100.00
69318;BME280;56457;52.190;4.440;2023-02-13T05:45:42;103776.84;;;7.14;100.00
69318;BME280;56457;52.190;4.440;2023-02-13T05:46:43;103782.38;;;7.20;100.00
69318;BME280;56457;52.190;4.440;2023-02-13T05:47:43;103776.69;;;7.27;100.00
69318;BME280;56457;52.190;4.440;2023-02-13T05:48:44;103776.69;;;7.27;100.00
69318;BME280;56457;52.190;4.440;2023-02-13T05:49:44;103784.19;;;7.21;100.00
69318;BME280;56457;52.190;4.440;2023-02-13T05:50:45;103778.66;;;7.15;100.00
69318;BME280;56457;52.190;4.440;2023-02-13T05:51:45;103784.75;;;7.16;100.00
69318;BME280;56457;52.190;4.440;2023-02-13T05:52:46;103778.53;;;7.14;100.00
69318;BME280;56457;52.190;4.440;2023-02-13T05:53:46;103775.84;;;7.12;100.00
69318;BME280;56457;52.190;4.440;2023-02-13T05:54:46;103787.44;;;7.17;100.00
69318;BME280;56457;52.190;4.440;2023-02-13T05:55:47;103785.09;;;7.22;100.00
69318;BME280;56457;52.190;4.440;2023-02-13T05:56:47;103786.88;;;7.23;100.00
69318;BME280;56457;52.190;4.440;2023-02-13T05:57:47;103787.53;;;7.19;100.00
69318;BME280;56457;52.190;4.440;2023-02-13T05:58:51;103783.94;;;7.17;100.00
69318;BME280;56457;52.190;4.440;2023-02-13T05:59:51;103781.31;;;7.17;100.00
69318;BME280;56457;52.190;4.440;2023-02-13T06:00:53;103782.28;;;7.19;100.00
69318;BME280;56457;52.190;4.440;2023-02-13T06:01:54;103793.00;;;7.23;100.00
69318;BME280;56457;52.190;4.440;2023-02-13T06:02:54;103791.34;;;7.25;100.00
69318;BME280;56457;52.190;4.440;2023-02-13T06:03:55;103775.47;;;7.21;100.00
69318;BME280;56457;52.190;4.440;2023-02-13T06:04:55;103777.91;;;7.18;100.00
69318;BME280;56457;52.190;4.440;2023-02-13T06:05:55;103777.16;;;7.20;100.00
69318;BME280;56457;52.190;4.440;2023-02-13T06:06:56;103777.25;;;7.22;100.00
69318;BME280;56457;52.190;4.440;2023-02-13T06:07:56;103773.56;;;7.18;100.00
69318;BME280;56457;52.190;4.440;2023-02-13T06:08:56;103771.53;;;7.13;100.00
69318;BME280;56457;52.190;4.440;2023-02-13T06:09:57;103770.69;;;7.14;100.00
69318;BME280;56457;52.190;4.440;2023-02-13T06:10:58;103774.31;;;7.16;100.00
69318;BME280;56457;52.190;4.440;2023-02-13T06:11:59;103777.50;;;7.10;100.00